Blair, Mississippi
Current Conditions -  °F | °C
As of 3:53 PM on Monday 20 Oct 2014 (Local Time) from KTUP Reporting Station
Scattered Clouds Scattered Clouds  
Wind Chill: 73°   Ceiling: Unl
Heat Index: 73°   Visibility: 10mi
Dew Point: 48°   Wind: 5mph
Humidity: 41%   Direction: 280°W
Pressure: 30.01"   Gusts: NA
Location:  34.433°N, 88.7018°W
Report Text: KTUP 202053Z 28004KT 10SM SCT095 23/09 A3001 RMK AO2 SLP161 T02280089 56017 $
Loading
Personal Weather Stations






























Interactive Weather Map
Tropical Storm Tracking
New forecast layout! Learn more

10-Day Weather Forecast

Advertisements
Track Severe Weather on mobile